createdAt,value
2023-02-01T00:00:38.054Z,3.52
2023-02-01T00:03:06.660Z,3.52
2023-02-01T00:05:34.054Z,3.43
2023-02-01T00:08:01.391Z,3.41
2023-02-01T00:10:28.755Z,3.46
2023-02-01T00:12:56.081Z,3.46
2023-02-01T00:15:24.138Z,3.49
2023-02-01T00:17:55.958Z,3.49
2023-02-01T00:20:23.632Z,3.50
2023-02-01T00:22:51.061Z,3.54
2023-02-01T00:25:18.416Z,3.49
2023-02-01T00:27:50.902Z,3.49
2023-02-01T00:30:19.783Z,3.48
2023-02-01T00:32:47.303Z,3.53
2023-02-01T00:35:14.758Z,3.52
2023-02-01T00:37:42.071Z,3.52
2023-02-01T00:40:10.199Z,3.57
2023-02-01T00:42:37.549Z,3.50
2023-02-01T00:45:05.272Z,3.57
2023-02-01T00:47:33.313Z,3.56
2023-02-01T00:50:00.644Z,3.49
2023-02-01T00:52:28.604Z,3.50
2023-02-01T00:54:55.989Z,3.48
2023-02-01T00:57:23.324Z,3.49
2023-02-01T00:59:50.693Z,3.50
2023-02-01T01:02:18.124Z,3.50
2023-02-01T01:04:45.560Z,3.57
2023-02-01T01:07:12.852Z,3.54
2023-02-01T01:09:40.265Z,3.53
2023-02-01T01:12:07.667Z,3.56
2023-02-01T01:14:35.017Z,3.57
2023-02-01T01:17:02.353Z,3.59
2023-02-01T01:19:29.317Z,3.59
2023-02-01T01:21:56.681Z,3.62
2023-02-01T01:24:24.102Z,3.59
2023-02-01T01:26:51.443Z,3.62
2023-02-01T01:29:18.872Z,3.57
2023-02-01T01:31:46.182Z,3.60
2023-02-01T01:34:13.561Z,3.55
2023-02-01T01:36:41.127Z,3.63
2023-02-01T01:39:08.672Z,3.71
2023-02-01T01:41:36.370Z,3.68
2023-02-01T01:44:58.531Z,3.56
2023-02-01T01:47:45.263Z,3.59
2023-02-01T01:50:18.029Z,3.62
2023-02-01T01:52:47.859Z,3.63
2023-02-01T01:55:18.388Z,3.68
2023-02-01T01:57:53.271Z,3.71
2023-02-01T02:00:21.953Z,3.69
2023-02-01T02:02:58.483Z,3.70
2023-02-01T02:05:26.672Z,3.72
2023-02-01T02:07:58.223Z,3.67
2023-02-01T02:10:45.739Z,3.70
2023-02-01T02:13:13.638Z,3.72
2023-02-01T02:15:50.190Z,3.71
2023-02-01T02:18:24.617Z,3.66
2023-02-01T02:21:15.345Z,3.60
2023-02-01T02:23:55.268Z,3.62
2023-02-01T02:26:28.495Z,3.64
2023-02-01T02:29:17.664Z,3.60
2023-02-01T02:32:23.450Z,3.64
2023-02-01T02:35:03.735Z,3.62
2023-02-01T02:37:41.263Z,3.68
2023-02-01T02:40:23.113Z,3.70
2023-02-01T02:43:18.567Z,3.72
2023-02-01T02:46:25.948Z,3.69
2023-02-01T02:49:00.663Z,3.72
2023-02-01T02:52:10.667Z,3.74
2023-02-01T02:54:48.721Z,3.77
2023-02-01T02:57:48.289Z,3.70
2023-02-01T03:00:39.935Z,3.70
2023-02-01T03:03:25.773Z,3.73
2023-02-01T03:05:53.470Z,3.74
2023-02-01T03:08:26.786Z,3.70
2023-02-01T03:11:04.863Z,3.69
2023-02-01T03:13:47.116Z,3.72
2023-02-01T03:16:38.016Z,3.64
2023-02-01T03:19:19.291Z,3.70
2023-02-01T03:21:51.793Z,3.70
2023-02-01T03:24:42.825Z,3.65
2023-02-01T03:27:35.842Z,3.70
2023-02-01T03:30:18.958Z,3.72
2023-02-01T03:33:00.596Z,3.80
2023-02-01T03:35:51.616Z,3.79
2023-02-01T03:38:43.986Z,3.79
2023-02-01T03:41:36.718Z,3.85
2023-02-01T03:44:13.521Z,3.83
2023-02-01T03:46:48.816Z,3.81
2023-02-01T03:49:30.378Z,3.86
2023-02-01T03:52:00.754Z,3.84
2023-02-01T03:54:29.318Z,3.79
2023-02-01T03:56:59.164Z,3.73
2023-02-01T03:59:26.536Z,3.82
2023-02-01T04:01:54.027Z,3.74
2023-02-01T04:04:21.808Z,3.75
2023-02-01T04:06:53.027Z,3.73
2023-02-01T04:09:21.221Z,3.65
2023-02-01T04:11:48.575Z,3.63
2023-02-01T04:14:15.896Z,3.66
2023-02-01T04:16:43.381Z,3.68
2023-02-01T04:19:10.838Z,3.70
2023-02-01T04:21:38.408Z,3.70
2023-02-01T04:24:06.458Z,3.75
2023-02-01T04:26:33.984Z,3.84
2023-02-01T04:29:01.317Z,3.81
2023-02-01T04:31:28.762Z,3.85
2023-02-01T04:33:58.536Z,3.79
2023-02-01T04:36:25.986Z,3.76
2023-02-01T04:38:54.020Z,3.77
2023-02-01T04:41:23.746Z,3.88
2023-02-01T04:43:53.409Z,3.87
2023-02-01T04:46:21.005Z,3.87
2023-02-01T04:48:48.436Z,3.94
2023-02-01T04:51:16.170Z,3.89
2023-02-01T04:53:43.722Z,3.97
2023-02-01T04:56:11.190Z,3.92
2023-02-01T04:58:38.518Z,3.91
2023-02-01T05:01:07.182Z,3.92
2023-02-01T05:03:35.252Z,3.91
2023-02-01T05:06:04.957Z,3.99
2023-02-01T05:08:33.110Z,3.99
2023-02-01T05:11:03.368Z,3.91
2023-02-01T05:13:49.610Z,3.93
2023-02-01T05:16:17.780Z,3.89
2023-02-01T05:18:45.178Z,3.86
2023-02-01T05:21:12.600Z,3.86
2023-02-01T05:23:58.797Z,3.91
2023-02-01T05:26:26.477Z,4.01
2023-02-01T05:28:53.982Z,3.96
2023-02-01T05:31:21.439Z,3.95
2023-02-01T05:33:48.969Z,3.89
2023-02-01T05:36:16.465Z,3.85
2023-02-01T05:38:43.809Z,3.84
2023-02-01T05:41:11.280Z,3.94
2023-02-01T05:43:38.816Z,4.02
2023-02-01T05:46:06.364Z,4.00
2023-02-01T05:48:33.744Z,3.94
2023-02-01T05:51:00.752Z,3.95
2023-02-01T05:53:27.692Z,3.97
2023-02-01T05:55:54.711Z,3.96
2023-02-01T05:58:21.761Z,3.90
2023-02-01T06:00:48.747Z,3.86
2023-02-01T06:03:16.075Z,3.94
2023-02-01T06:05:46.166Z,3.92
2023-02-01T06:08:14.305Z,3.93
2023-02-01T06:10:41.313Z,3.94
2023-02-01T06:13:08.499Z,3.87
2023-02-01T06:15:36.459Z,3.89
2023-02-01T06:18:03.948Z,3.88
2023-02-01T06:20:31.487Z,3.89
2023-02-01T06:22:58.757Z,3.93
2023-02-01T06:25:26.071Z,4.01
2023-02-01T06:27:52.948Z,4.13
2023-02-01T06:30:20.374Z,4.10
2023-02-01T06:32:55.087Z,4.03
2023-02-01T06:35:22.526Z,4.08
2023-02-01T06:37:49.433Z,4.13
2023-02-01T06:40:16.817Z,4.17
2023-02-01T06:42:43.758Z,4.19
2023-02-01T06:45:11.096Z,4.31
2023-02-01T06:47:38.211Z,4.30
2023-02-01T06:50:06.187Z,4.43
2023-02-01T06:52:33.476Z,4.50
2023-02-01T06:55:00.854Z,4.53
2023-02-01T06:57:31.470Z,4.55
2023-02-01T06:59:59.521Z,4.58
2023-02-01T07:02:26.897Z,4.56
2023-02-01T07:04:54.289Z,4.57
2023-02-01T07:07:23.463Z,4.54
2023-02-01T07:09:51.245Z,4.43
2023-02-01T07:12:19.681Z,4.41
2023-02-01T07:14:46.974Z,4.34
2023-02-01T07:17:14.303Z,4.39
2023-02-01T07:19:41.601Z,4.41
2023-02-01T07:22:09.007Z,4.49
2023-02-01T07:24:36.382Z,4.50
2023-02-01T07:27:03.802Z,4.50
2023-02-01T07:29:31.073Z,4.52
2023-02-01T07:31:59.032Z,4.53
2023-02-01T07:34:26.343Z,4.54
2023-02-01T07:36:53.665Z,4.60
2023-02-01T07:39:20.926Z,4.61
2023-02-01T07:41:48.351Z,4.55
2023-02-01T07:44:15.916Z,4.47
2023-02-01T07:46:44.208Z,4.40
2023-02-01T07:49:11.283Z,4.36
2023-02-01T07:51:38.580Z,4.35
2023-02-01T07:54:05.535Z,4.25
2023-02-01T07:56:32.541Z,4.28
2023-02-01T07:59:01.599Z,4.38
2023-02-01T08:01:30.239Z,4.46
2023-02-01T08:04:02.050Z,4.56
2023-02-01T08:06:34.769Z,4.60
2023-02-01T08:09:02.868Z,4.63
2023-02-01T08:11:29.904Z,4.45
2023-02-01T08:13:57.514Z,4.43
2023-02-01T08:16:25.547Z,4.37
2023-02-01T08:18:53.526Z,4.39
2023-02-01T08:21:26.009Z,4.41
2023-02-01T08:23:53.525Z,4.35
2023-02-01T08:26:27.546Z,4.33
2023-02-01T08:29:01.048Z,4.34
2023-02-01T08:31:30.076Z,4.27
2023-02-01T08:34:00.773Z,4.28
2023-02-01T08:36:30.481Z,4.28
2023-02-01T08:38:58.002Z,4.32
2023-02-01T08:41:30.051Z,4.39
2023-02-01T08:43:58.143Z,4.52
2023-02-01T08:46:25.199Z,4.50
2023-02-01T08:48:52.483Z,4.59
2023-02-01T08:51:21.937Z,4.57
2023-02-01T08:53:50.242Z,4.60
2023-02-01T08:56:18.666Z,4.56
2023-02-01T08:58:46.220Z,4.57
2023-02-01T09:01:18.104Z,4.69
2023-02-01T09:03:46.169Z,4.71
2023-02-01T09:06:15.647Z,4.69
2023-02-01T09:08:43.131Z,4.65
2023-02-01T09:11:21.270Z,4.67
2023-02-01T09:13:51.107Z,4.67
2023-02-01T09:16:20.353Z,4.70
2023-02-01T09:18:56.774Z,4.72
2023-02-01T09:21:37.777Z,4.80
2023-02-01T09:24:07.201Z,4.93
2023-02-01T09:26:36.579Z,5.08
2023-02-01T09:29:08.139Z,5.21
2023-02-01T09:31:40.053Z,5.55
2023-02-01T09:34:09.380Z,5.92
2023-02-01T09:36:37.617Z,6.17
2023-02-01T09:39:07.163Z,6.11
2023-02-01T09:42:02.767Z,6.15
2023-02-01T09:44:50.633Z,6.07
2023-02-01T09:47:21.741Z,6.18
2023-02-01T09:50:04.642Z,6.04
2023-02-01T09:52:47.750Z,5.86
2023-02-01T09:55:20.714Z,5.75
2023-02-01T09:57:54.362Z,5.54
2023-02-01T10:00:29.196Z,5.45
2023-02-01T10:02:58.826Z,5.53
2023-02-01T10:05:46.842Z,5.65
2023-02-01T10:08:36.600Z,5.61
2023-02-01T10:11:49.640Z,5.61
2023-02-01T10:14:23.961Z,5.69
2023-02-01T10:17:04.135Z,5.73
2023-02-01T10:19:52.380Z,5.73
2023-02-01T10:23:00.356Z,5.74
2023-02-01T10:25:33.131Z,5.76
2023-02-01T10:28:03.263Z,5.85
2023-02-01T10:30:43.639Z,5.84
2023-02-01T10:33:33.985Z,5.85
2023-02-01T10:36:31.443Z,5.88
2023-02-01T10:39:04.772Z,5.82
2023-02-01T10:41:36.578Z,5.86
2023-02-01T10:44:11.103Z,5.90
2023-02-01T10:46:40.328Z,5.97
2023-02-01T10:49:17.797Z,5.92
2023-02-01T10:51:48.515Z,5.97
2023-02-01T10:54:21.879Z,6.03
2023-02-01T10:56:52.295Z,6.06
2023-02-01T10:59:25.268Z,6.05
2023-02-01T11:02:04.150Z,6.04
2023-02-01T11:04:35.827Z,5.92
2023-02-01T11:07:24.155Z,5.78
2023-02-01T11:09:55.826Z,5.69
2023-02-01T11:12:38.642Z,5.62
2023-02-01T11:15:21.592Z,5.62
2023-02-01T11:17:52.807Z,5.65
2023-02-01T11:20:22.631Z,5.73
2023-02-01T11:22:57.071Z,5.79
2023-02-01T11:25:25.777Z,5.91
2023-02-01T11:27:55.929Z,5.92
2023-02-01T11:30:41.228Z,5.89
2023-02-01T11:33:14.893Z,5.92
2023-02-01T11:35:43.228Z,5.91
2023-02-01T11:38:27.775Z,5.90
2023-02-01T11:40:55.233Z,5.94
2023-02-01T11:43:28.773Z,5.98
2023-02-01T11:46:00.235Z,5.96
2023-02-01T11:48:30.629Z,5.87
2023-02-01T11:51:24.319Z,5.77
2023-02-01T11:54:09.635Z,5.72
2023-02-01T11:57:22.648Z,5.78
2023-02-01T12:00:11.734Z,5.79
2023-02-01T12:03:00.247Z,5.84
2023-02-01T12:05:47.878Z,5.81
2023-02-01T12:08:42.333Z,5.78
2023-02-01T12:11:39.789Z,5.79
2023-02-01T12:14:32.958Z,5.88
2023-02-01T12:17:38.156Z,5.91
2023-02-01T12:20:42.979Z,5.98
2023-02-01T12:23:27.323Z,5.91
2023-02-01T12:25:54.627Z,5.89
2023-02-01T12:28:46.012Z,5.87
2023-02-01T12:31:26.198Z,5.87
2023-02-01T12:34:05.448Z,5.80
2023-02-01T12:36:54.179Z,5.73
2023-02-01T12:39:21.462Z,5.72
2023-02-01T12:42:30.507Z,5.62
2023-02-01T12:45:24.898Z,5.60
2023-02-01T12:47:58.969Z,5.60
2023-02-01T12:51:02.925Z,5.56
2023-02-01T12:53:56.564Z,5.57
2023-02-01T12:56:36.484Z,5.65
2023-02-01T12:59:09.053Z,5.68
2023-02-01T13:01:38.824Z,5.69
2023-02-01T13:04:33.210Z,5.67
2023-02-01T13:07:20.438Z,5.67
2023-02-01T13:09:58.462Z,5.66
2023-02-01T13:12:54.254Z,5.72
2023-02-01T13:15:41.962Z,5.80
2023-02-01T13:18:17.088Z,5.87
2023-02-01T13:21:08.739Z,5.95
2023-02-01T13:23:41.123Z,5.98
2023-02-01T13:26:09.052Z,5.93
2023-02-01T13:29:06.585Z,5.85
2023-02-01T13:32:01.589Z,5.65
2023-02-01T13:34:50.911Z,5.71
2023-02-01T13:37:27.397Z,5.68
2023-02-01T13:40:01.035Z,5.67
2023-02-01T13:42:50.528Z,5.67
2023-02-01T13:45:28.236Z,5.57
2023-02-01T13:47:58.690Z,5.58
2023-02-01T13:50:26.232Z,5.62
2023-02-01T13:53:02.395Z,5.65
2023-02-01T13:55:36.089Z,5.63
2023-02-01T13:58:07.791Z,5.66
2023-02-01T14:00:44.921Z,5.74
2023-02-01T14:03:23.104Z,5.74
2023-02-01T14:05:50.542Z,5.72
2023-02-01T14:08:41.415Z,5.71
2023-02-01T14:11:32.392Z,5.68
2023-02-01T14:14:17.350Z,5.67
2023-02-01T14:16:56.654Z,5.65
2023-02-01T14:19:32.639Z,5.68
2023-02-01T14:22:25.252Z,5.64
2023-02-01T14:24:55.114Z,5.64
2023-02-01T14:27:30.646Z,5.64
2023-02-01T14:30:00.621Z,5.56
2023-02-01T14:32:39.537Z,5.53
2023-02-01T14:35:26.491Z,5.51
2023-02-01T14:37:59.801Z,5.53
2023-02-01T14:40:29.278Z,5.46
2023-02-01T14:42:58.033Z,5.42
2023-02-01T14:45:29.122Z,5.40
2023-02-01T14:48:16.543Z,5.39
2023-02-01T14:50:49.295Z,5.29
2023-02-01T14:53:24.595Z,5.27
2023-02-01T14:56:14.242Z,5.27
2023-02-01T14:59:05.206Z,5.23
2023-02-01T15:01:34.967Z,5.23
2023-02-01T15:04:22.848Z,5.21
2023-02-01T15:06:58.242Z,5.18
2023-02-01T15:09:29.768Z,5.21
2023-02-01T15:12:25.120Z,5.30
2023-02-01T15:15:15.989Z,5.32
2023-02-01T15:17:50.070Z,5.29
2023-02-01T15:20:28.584Z,5.27
2023-02-01T15:22:59.665Z,5.26
2023-02-01T15:25:37.637Z,5.26
2023-02-01T15:28:06.900Z,5.26
2023-02-01T15:30:35.941Z,5.27
2023-02-01T15:33:17.949Z,5.30
2023-02-01T15:35:53.648Z,5.28
2023-02-01T15:38:20.930Z,5.22
2023-02-01T15:41:07.357Z,5.25
2023-02-01T15:43:47.318Z,5.23
2023-02-01T15:46:18.839Z,5.27
2023-02-01T15:48:49.450Z,5.24
2023-02-01T15:51:19.955Z,5.28
2023-02-01T15:54:08.619Z,5.28
2023-02-01T15:56:38.453Z,5.31
2023-02-01T15:59:15.957Z,5.33
2023-02-01T16:01:43.578Z,5.38
2023-02-01T16:04:30.979Z,5.39
2023-02-01T16:07:05.232Z,5.38
2023-02-01T16:09:50.157Z,5.40
2023-02-01T16:12:43.942Z,5.38
2023-02-01T16:15:11.303Z,5.39
2023-02-01T16:17:38.668Z,5.36
2023-02-01T16:20:06.684Z,5.35
2023-02-01T16:22:34.306Z,5.35
2023-02-01T16:25:02.797Z,5.36
2023-02-01T16:27:30.141Z,5.34
2023-02-01T16:29:57.758Z,5.32
2023-02-01T16:32:25.304Z,5.36
2023-02-01T16:34:54.343Z,5.31
2023-02-01T16:37:25.387Z,5.38
2023-02-01T16:39:52.887Z,5.33
2023-02-01T16:42:20.314Z,5.37
2023-02-01T16:44:47.671Z,5.36
2023-02-01T16:47:23.551Z,5.36
2023-02-01T16:49:51.390Z,5.26
2023-02-01T16:52:24.971Z,5.29
2023-02-01T16:54:53.783Z,5.34
2023-02-01T16:57:24.841Z,5.34
2023-02-01T16:59:52.228Z,5.36
2023-02-01T17:02:21.790Z,5.35
2023-02-01T17:04:49.780Z,5.33
2023-02-01T17:07:19.551Z,5.30
2023-02-01T17:09:47.787Z,5.32
2023-02-01T17:12:30.560Z,5.35
2023-02-01T17:14:58.705Z,5.33
2023-02-01T17:17:38.720Z,5.33
2023-02-01T17:20:07.386Z,5.31
2023-02-01T17:22:34.993Z,5.32
2023-02-01T17:25:02.413Z,5.32
2023-02-01T17:27:30.280Z,5.34
2023-02-01T17:29:57.682Z,5.33
2023-02-01T17:32:26.528Z,5.29
2023-02-01T17:34:53.943Z,5.29
2023-02-01T17:37:30.619Z,5.30
2023-02-01T17:39:58.952Z,5.28
2023-02-01T17:42:27.690Z,5.30
2023-02-01T17:45:10.823Z,5.28
2023-02-01T17:47:38.827Z,5.24
2023-02-01T17:50:06.600Z,5.31
2023-02-01T17:52:36.226Z,5.32
2023-02-01T17:55:07.030Z,5.36
2023-02-01T17:57:34.327Z,5.36
2023-02-01T18:00:01.877Z,5.30
2023-02-01T18:02:32.093Z,5.33
2023-02-01T18:05:00.583Z,5.36
2023-02-01T18:07:27.929Z,5.35
2023-02-01T18:09:56.343Z,5.33
2023-02-01T18:12:26.467Z,5.35
2023-02-01T18:14:53.878Z,5.38
2023-02-01T18:17:21.276Z,5.36
2023-02-01T18:19:48.677Z,5.40
2023-02-01T18:22:17.996Z,5.40
2023-02-01T18:24:45.363Z,5.41
2023-02-01T18:27:12.733Z,5.43
2023-02-01T18:29:40.210Z,5.45
2023-02-01T18:32:08.666Z,5.42
2023-02-01T18:34:35.988Z,5.42
2023-02-01T18:37:03.368Z,5.41
2023-02-01T18:39:30.777Z,5.36
2023-02-01T18:41:58.290Z,5.35
2023-02-01T18:44:25.655Z,5.39
2023-02-01T18:46:53.002Z,5.35
2023-02-01T18:49:20.334Z,5.29
2023-02-01T18:51:47.866Z,5.37
2023-02-01T18:54:15.175Z,5.34
2023-02-01T18:56:43.290Z,5.31
2023-02-01T18:59:11.782Z,5.32
2023-02-01T19:01:39.319Z,5.29
2023-02-01T19:04:07.427Z,5.25
2023-02-01T19:06:39.211Z,5.25
2023-02-01T19:09:06.543Z,5.23
2023-02-01T19:11:33.904Z,5.22
2023-02-01T19:14:01.189Z,5.26
2023-02-01T19:16:28.711Z,5.29
2023-02-01T19:18:56.143Z,5.30
2023-02-01T19:21:23.461Z,5.26
2023-02-01T19:23:50.829Z,5.34
2023-02-01T19:26:19.451Z,5.26
2023-02-01T19:28:48.747Z,5.29
2023-02-01T19:31:17.723Z,5.28
2023-02-01T19:33:45.392Z,5.28
2023-02-01T19:36:12.869Z,5.31
2023-02-01T19:38:41.408Z,5.35
2023-02-01T19:41:08.801Z,5.40
2023-02-01T19:43:36.881Z,5.36
2023-02-01T19:46:04.559Z,5.35
2023-02-01T19:48:34.203Z,5.36
2023-02-01T19:51:02.046Z,5.41
2023-02-01T19:53:30.094Z,5.44
2023-02-01T19:55:58.598Z,5.43
2023-02-01T19:58:26.785Z,5.42
2023-02-01T20:00:57.067Z,5.43
2023-02-01T20:03:25.019Z,5.47
2023-02-01T20:05:54.253Z,5.45
2023-02-01T20:08:21.906Z,5.45
2023-02-01T20:10:49.767Z,5.45
2023-02-01T20:13:17.304Z,5.45
2023-02-01T20:15:44.785Z,5.48
2023-02-01T20:18:12.542Z,5.45
2023-02-01T20:20:41.769Z,5.44
2023-02-01T20:23:09.321Z,5.43
2023-02-01T20:25:38.824Z,5.53
2023-02-01T20:28:06.251Z,5.50
2023-02-01T20:30:33.674Z,5.56
2023-02-01T20:33:01.054Z,5.57
2023-02-01T20:35:29.136Z,5.55
2023-02-01T20:37:58.901Z,5.50
2023-02-01T20:40:26.299Z,5.55
2023-02-01T20:42:54.048Z,5.58
2023-02-01T20:45:22.303Z,5.60
2023-02-01T20:47:54.067Z,5.69
2023-02-01T20:50:21.833Z,5.66
2023-02-01T20:52:49.409Z,5.65
2023-02-01T20:55:16.875Z,5.71
2023-02-01T20:57:44.317Z,5.73
2023-02-01T21:00:12.593Z,5.70
2023-02-01T21:02:39.972Z,5.70
2023-02-01T21:05:07.990Z,5.67
2023-02-01T21:07:36.350Z,5.69
2023-02-01T21:10:04.663Z,5.67
2023-02-01T21:12:32.199Z,5.68
2023-02-01T21:14:59.578Z,5.68
2023-02-01T21:17:28.538Z,5.69
2023-02-01T21:19:56.184Z,5.70
2023-02-01T21:22:23.563Z,5.65
2023-02-01T21:24:50.944Z,5.67
2023-02-01T21:27:18.334Z,5.70
2023-02-01T21:29:45.670Z,5.69
2023-02-01T21:32:13.546Z,5.62
2023-02-01T21:34:40.876Z,5.65
2023-02-01T21:37:08.329Z,5.63
2023-02-01T21:39:35.679Z,5.66
2023-02-01T21:42:16.649Z,5.63
2023-02-01T21:44:47.346Z,5.58
2023-02-01T21:47:17.306Z,5.63
2023-02-01T21:49:46.172Z,5.57
2023-02-01T21:52:17.610Z,5.61
2023-02-01T21:54:45.232Z,5.61
2023-02-01T21:57:13.025Z,5.60
2023-02-01T21:59:43.143Z,5.60
2023-02-01T22:02:13.592Z,5.65
2023-02-01T22:04:41.093Z,5.59
2023-02-01T22:07:08.650Z,5.58
2023-02-01T22:09:36.170Z,5.60
2023-02-01T22:12:04.185Z,5.60
2023-02-01T22:14:32.578Z,5.64
2023-02-01T22:17:00.644Z,5.63
2023-02-01T22:19:28.961Z,5.66
2023-02-01T22:21:56.308Z,5.67
2023-02-01T22:24:23.700Z,5.70
2023-02-01T22:26:51.038Z,5.64
2023-02-01T22:29:19.354Z,5.69
2023-02-01T22:31:46.953Z,5.68
2023-02-01T22:34:15.557Z,5.71
2023-02-01T22:36:43.390Z,5.72
2023-02-01T22:39:11.249Z,5.71
2023-02-01T22:41:38.789Z,5.68
2023-02-01T22:44:06.952Z,5.74
2023-02-01T22:46:34.356Z,5.69
2023-02-01T22:49:01.986Z,5.72
2023-02-01T22:51:30.627Z,5.67
2023-02-01T22:53:58.361Z,5.68
2023-02-01T22:56:26.656Z,5.68
2023-02-01T22:58:56.060Z,5.61
2023-02-01T23:01:23.639Z,5.59
2023-02-01T23:03:51.210Z,5.60
2023-02-01T23:06:19.016Z,5.60
2023-02-01T23:08:46.931Z,5.53
2023-02-01T23:11:14.480Z,5.48
2023-02-01T23:13:41.976Z,5.49
2023-02-01T23:16:14.235Z,5.38
2023-02-01T23:18:42.202Z,5.32
2023-02-01T23:21:20.694Z,5.33
2023-02-01T23:23:57.711Z,5.19
2023-02-01T23:26:27.477Z,5.20
2023-02-01T23:28:55.941Z,5.09
2023-02-01T23:31:25.929Z,5.04
2023-02-01T23:33:56.816Z,5.12
2023-02-01T23:36:25.601Z,5.09
2023-02-01T23:38:53.155Z,5.09
2023-02-01T23:41:21.580Z,5.10
2023-02-01T23:43:58.043Z,5.07
2023-02-01T23:46:39.998Z,5.08
2023-02-01T23:49:08.834Z,5.14
2023-02-01T23:51:36.934Z,5.12
2023-02-01T23:54:04.854Z,5.13
2023-02-01T23:56:37.077Z,5.12
2023-02-01T23:59:06.792Z,5.20
